Time;durP1;ratioP1;P1;durP2;ratioP2;P2;SDS_P1;SDS_P2;PMS_P1;PMS_P2;Temp;Humidity;BMP_temperature;BMP_pressure;BME280_temperature;BME280_humidity;BME280_pressure;Samples;Min_cycle;Max_cycle;Signal;HPM_P1;HPM_P2
2023/05/02 00:01:45;;;;;;;16.42;9.88;;;13.20;54.20;;;;;;4981941;28;115350;-86
2023/05/02 00:04:12;;;;;;;13.57;9.88;;;13.10;54.20;;;;;;5000041;28;116922;-86
2023/05/02 00:06:41;;;;;;;13.27;9.18;;;13.10;54.40;;;;;;5000307;28;114517;-86
2023/05/02 00:09:09;;;;;;;14.25;10.10;;;13.00;54.40;;;;;;4983225;28;114680;-85
2023/05/02 00:11:39;;;;;;;14.98;8.55;;;12.90;54.60;;;;;;4998157;28;115507;-85
2023/05/02 00:14:07;;;;;;;11.23;8.88;;;12.90;54.60;;;;;;4981562;28;114798;-86
2023/05/02 00:16:34;;;;;;;11.15;8.57;;;12.90;54.80;;;;;;4983121;28;114934;-85
2023/05/02 00:19:03;;;;;;;12.82;9.15;;;12.90;54.80;;;;;;5013809;28;117394;-85
2023/05/02 00:21:31;;;;;;;16.33;9.02;;;12.90;54.80;;;;;;5006366;28;118319;-85
2023/05/02 00:23:59;;;;;;;12.18;9.23;;;12.90;54.70;;;;;;5004131;28;114516;-86
2023/05/02 00:26:27;;;;;;;12.00;8.23;;;12.90;54.60;;;;;;5000650;28;115367;-86
2023/05/02 00:28:55;;;;;;;10.68;7.57;;;12.90;54.50;;;;;;4984547;28;114744;-85
2023/05/02 00:31:22;;;;;;;11.70;8.10;;;12.90;54.60;;;;;;5004395;28;114926;-85
2023/05/02 00:33:49;;;;;;;10.77;7.78;;;12.90;54.50;;;;;;4987827;28;114716;-85
2023/05/02 00:36:17;;;;;;;10.23;6.70;;;12.90;54.30;;;;;;4969593;28;114500;-84
2023/05/02 00:38:44;;;;;;;8.35;6.55;;;12.90;53.80;;;;;;4985641;28;114618;-85
2023/05/02 00:41:11;;;;;;;7.68;5.95;;;12.90;53.70;;;;;;4985425;28;115555;-85
2023/05/02 00:43:39;;;;;;;11.40;5.80;;;12.90;53.50;;;;;;5003001;28;114674;-85
2023/05/02 00:46:07;;;;;;;8.18;5.30;;;12.90;53.10;;;;;;4986683;28;114810;-85
2023/05/02 00:48:35;;;;;;;6.18;4.72;;;12.90;52.70;;;;;;4986375;28;114471;-85
2023/05/02 00:51:07;;;;;;;7.78;4.50;;;12.90;52.30;;;;;;5001650;28;114911;-86
2023/05/02 00:53:35;;;;;;;6.22;4.60;;;12.90;52.10;;;;;;5001906;28;114652;-85
2023/05/02 00:56:02;;;;;;;7.43;4.28;;;12.90;51.90;;;;;;4953270;28;114423;-85
2023/05/02 00:58:29;;;;;;;6.07;4.15;;;12.80;51.70;;;;;;4985792;28;114291;-86
2023/05/02 01:01:21;;;;;;;6.20;4.32;;;12.90;51.00;;;;;;4982840;28;115887;-86
2023/05/02 01:04:19;;;;;;;6.60;3.63;;;12.90;50.60;;;;;;5002683;28;114709;-86
2023/05/02 01:06:55;;;;;;;4.85;3.15;;;12.90;50.50;;;;;;5001396;28;115015;-86
2023/05/02 01:09:28;;;;;;;6.03;3.20;;;12.80;50.00;;;;;;4966366;28;114454;-86
2023/05/02 01:12:23;;;;;;;5.90;3.65;;;12.80;49.70;;;;;;4973351;28;117950;-88
2023/05/02 01:14:54;;;;;;;7.10;3.60;;;12.90;49.30;;;;;;4965697;28;116566;-86
2023/05/02 01:17:23;;;;;;;5.38;3.30;;;12.80;49.10;;;;;;5003109;28;114551;-85
2023/05/02 01:19:54;;;;;;;6.25;3.60;;;12.80;49.10;;;;;;5001966;28;118410;-85
2023/05/02 01:22:21;;;;;;;6.63;3.70;;;12.90;48.90;;;;;;4984380;28;116841;-86
2023/05/02 01:25:07;;;;;;;6.60;3.30;;;12.80;48.90;;;;;;4984453;28;114770;-85
2023/05/02 01:27:53;;;;;;;6.22;3.60;;;12.90;48.70;;;;;;5000639;28;114988;-86
2023/05/02 01:30:20;;;;;;;6.80;3.50;;;12.80;48.10;;;;;;5001583;28;114540;-86
2023/05/02 01:32:47;;;;;;;5.55;3.47;;;12.80;48.20;;;;;;4968130;28;115340;-85
2023/05/02 01:35:15;;;;;;;5.90;3.28;;;12.70;48.20;;;;;;4984357;28;117162;-84
2023/05/02 01:37:44;;;;;;;5.80;3.25;;;12.70;48.20;;;;;;4984714;28;114434;-85
2023/05/02 01:40:12;;;;;;;5.55;3.10;;;12.70;48.10;;;;;;4984969;28;114348;-85
2023/05/02 01:42:39;;;;;;;6.25;3.20;;;12.70;48.10;;;;;;4983400;28;115370;-86
2023/05/02 01:45:07;;;;;;;6.43;3.90;;;12.70;48.30;;;;;;4985248;28;114653;-85
2023/05/02 01:47:35;;;;;;;4.50;3.05;;;12.70;48.10;;;;;;4984690;28;115163;-87
2023/05/02 01:50:02;;;;;;;4.68;3.17;;;12.70;48.00;;;;;;4985030;28;114575;-87
2023/05/02 01:52:29;;;;;;;4.13;2.75;;;12.70;47.70;;;;;;4983278;28;115093;-86
2023/05/02 01:54:57;;;;;;;4.68;2.80;;;12.70;47.60;;;;;;4967363;28;117170;-86
2023/05/02 01:57:25;;;;;;;4.40;2.80;;;12.70;47.30;;;;;;4999965;28;115210;-88
2023/05/02 01:59:54;;;;;;;5.68;2.80;;;12.70;47.10;;;;;;4968267;28;114620;-85
2023/05/02 02:02:26;;;;;;;4.85;3.00;;;12.70;47.20;;;;;;4997108;28;116101;-86
2023/05/02 02:04:54;;;;;;;4.45;2.97;;;12.60;47.00;;;;;;4965459;28;115088;-86
2023/05/02 02:07:21;;;;;;;7.20;2.63;;;12.60;46.90;;;;;;4951869;28;114639;-84
2023/05/02 02:09:49;;;;;;;3.60;2.45;;;12.60;46.70;;;;;;4984686;28;114422;-85
2023/05/02 02:12:26;;;;;;;4.03;2.50;;;12.60;46.40;;;;;;5001380;28;114911;-85
2023/05/02 02:15:15;;;;;;;3.97;2.47;;;12.70;45.90;;;;;;4968223;28;115675;-85
2023/05/02 02:17:44;;;;;;;3.72;2.10;;;12.70;45.70;;;;;;4995076;28;114475;-83
2023/05/02 02:20:11;;;;;;;4.07;2.20;;;12.60;45.50;;;;;;4967896;28;114632;-84
2023/05/02 02:22:40;;;;;;;4.15;2.83;;;12.70;44.80;;;;;;5000890;28;115358;-84
2023/05/02 02:25:12;;;;;;;4.53;2.17;;;12.70;44.60;;;;;;4968984;28;118673;-85
2023/05/02 02:27:40;;;;;;;3.70;2.25;;;12.70;44.60;;;;;;4969681;28;114382;-85
2023/05/02 02:30:09;;;;;;;5.53;2.35;;;12.80;44.40;;;;;;4984399;28;114538;-85
2023/05/02 02:32:37;;;;;;;4.80;2.20;;;12.80;44.00;;;;;;4984271;28;118866;-86
2023/05/02 02:35:05;;;;;;;5.32;2.80;;;12.80;44.00;;;;;;4984119;28;116929;-85
2023/05/02 02:37:47;;;;;;;3.03;1.85;;;12.80;43.50;;;;;;4984695;28;114551;-85
2023/05/02 02:40:22;;;;;;;3.60;2.17;;;12.90;43.50;;;;;;4984098;28;114563;-86
2023/05/02 02:43:02;;;;;;;;;;;12.90;43.40;;;;;;4983240;28;114934;-85
2023/05/02 02:45:35;;;;;;;3.75;2.08;;;12.80;43.80;;;;;;4984210;28;114624;-86
2023/05/02 02:48:26;;;;;;;3.75;2.20;;;12.80;43.10;;;;;;4974321;28;114333;-86
2023/05/02 02:51:12;;;;;;;6.55;2.65;;;12.90;43.00;;;;;;4974426;28;114253;-86
2023/05/02 02:54:05;;;;;;;4.80;2.35;;;12.90;42.80;;;;;;5000368;28;115396;-85
2023/05/02 02:57:23;;;;;;;3.38;1.98;;;12.90;42.70;;;;;;4985351;28;114710;-85
2023/05/02 03:00:05;;;;;;;4.07;2.13;;;12.90;42.60;;;;;;5005793;28;114480;-85
2023/05/02 03:02:32;;;;;;;3.53;2.10;;;12.90;42.60;;;;;;4972738;28;114584;-85
2023/05/02 03:05:03;;;;;;;4.15;2.10;;;12.90;42.80;;;;;;5000233;28;116383;-85
2023/05/02 03:07:30;;;;;;;5.28;2.03;;;12.90;42.90;;;;;;4983168;28;117839;-85
2023/05/02 03:10:02;;;;;;;5.55;2.33;;;12.90;42.50;;;;;;5001243;28;115040;-84
2023/05/02 03:12:30;;;;;;;3.35;2.15;;;13.00;42.30;;;;;;5001482;28;114558;-84
2023/05/02 03:15:06;;;;;;;5.28;2.40;;;13.00;42.50;;;;;;4998961;28;114863;-85
2023/05/02 03:17:34;;;;;;;4.90;2.33;;;13.10;42.50;;;;;;4962520;28;116261;-85
2023/05/02 03:20:02;;;;;;;5.55;2.30;;;13.20;42.70;;;;;;4967784;28;114585;-84
2023/05/02 03:22:30;;;;;;;4.40;2.35;;;13.20;42.70;;;;;;4983600;28;114551;-86
2023/05/02 03:24:58;;;;;;;5.05;2.50;;;13.20;42.70;;;;;;4983238;28;115450;-86
2023/05/02 03:27:27;;;;;;;4.28;2.33;;;13.20;42.60;;;;;;4983579;28;117376;-86
2023/05/02 03:29:54;;;;;;;3.80;2.30;;;13.20;42.90;;;;;;4967908;28;114912;-86
2023/05/02 03:32:25;;;;;;;3.80;2.47;;;13.20;42.70;;;;;;4983594;28;114570;-84
2023/05/02 03:34:57;;;;;;;6.22;2.42;;;13.20;43.00;;;;;;4966094;28;117924;-87
2023/05/02 03:37:30;;;;;;;6.05;2.38;;;13.30;42.70;;;;;;4969122;28;117650;-87
2023/05/02 03:39:59;;;;;;;5.03;2.30;;;13.30;42.80;;;;;;4982155;28;114277;-86
2023/05/02 03:42:29;;;;;;;4.35;2.40;;;13.30;42.70;;;;;;4983406;28;114482;-84
2023/05/02 03:44:57;;;;;;;4.97;2.40;;;13.30;42.60;;;;;;4950358;28;119018;-84
2023/05/02 03:47:26;;;;;;;4.47;2.50;;;13.30;42.60;;;;;;4982504;28;117813;-84
2023/05/02 03:49:55;;;;;;;3.78;2.30;;;13.30;42.60;;;;;;4983886;28;115027;-85
2023/05/02 03:52:22;;;;;;;5.32;2.95;;;13.40;42.60;;;;;;4983135;28;114533;-86
2023/05/02 03:54:52;;;;;;;8.23;3.13;;;13.40;42.70;;;;;;4982541;28;116236;-84
2023/05/02 03:57:20;;;;;;;7.15;3.25;;;13.40;42.80;;;;;;5000199;28;114642;-85
2023/05/02 03:59:47;;;;;;;8.70;3.58;;;13.40;43.00;;;;;;4999063;28;114562;-85
2023/05/02 04:02:25;;;;;;;7.50;3.50;;;13.40;42.90;;;;;;4985762;28;114511;-86
2023/05/02 04:04:54;;;;;;;8.15;4.32;;;13.40;43.00;;;;;;5000072;28;114906;-85
2023/05/02 04:07:24;;;;;;;7.68;3.58;;;13.40;43.10;;;;;;5001830;28;117016;-85
2023/05/02 04:10:04;;;;;;;6.20;3.60;;;13.50;43.00;;;;;;5002762;28;115679;-86
2023/05/02 04:12:36;;;;;;;8.95;4.05;;;13.50;43.20;;;;;;4988005;28;114505;-86
2023/05/02 04:15:04;;;;;;;10.15;4.10;;;13.50;43.20;;;;;;4984987;28;117067;-87
2023/05/02 04:17:32;;;;;;;7.50;4.25;;;13.60;43.20;;;;;;4969882;28;116992;-86
2023/05/02 04:20:01;;;;;;;10.85;4.72;;;13.70;43.10;;;;;;4989525;28;114555;-86
2023/05/02 04:22:33;;;;;;;11.80;5.10;;;13.70;43.10;;;;;;4987128;28;115007;-86
2023/05/02 04:25:06;;;;;;;10.88;4.40;;;13.80;43.20;;;;;;4986201;28;117322;-86
2023/05/02 04:27:35;;;;;;;12.32;4.60;;;13.90;43.00;;;;;;4969271;28;117302;-86
2023/05/02 04:30:03;;;;;;;11.68;4.70;;;13.90;43.00;;;;;;4972788;28;114578;-83
2023/05/02 04:32:32;;;;;;;9.93;5.55;;;14.00;42.60;;;;;;4988105;28;114462;-86
2023/05/02 04:35:01;;;;;;;11.63;4.65;;;14.10;42.70;;;;;;4985297;28;118103;-84
2023/05/02 04:37:29;;;;;;;11.90;5.07;;;14.20;42.50;;;;;;4969353;28;114686;-84
2023/05/02 04:39:56;;;;;;;14.90;5.35;;;14.30;42.20;;;;;;4983496;28;115390;-85
2023/05/02 04:42:28;;;;;;;10.25;4.35;;;14.30;42.30;;;;;;4987374;28;114435;-85
2023/05/02 04:45:05;;;;;;;8.10;3.50;;;14.40;41.60;;;;;;4987953;28;115462;-85
2023/05/02 04:47:32;;;;;;;7.07;3.33;;;14.40;41.30;;;;;;5001858;28;120112;-85
2023/05/02 04:50:00;;;;;;;5.55;3.38;;;14.40;41.40;;;;;;5003548;28;114452;-85
2023/05/02 04:52:31;;;;;;;7.93;3.38;;;14.40;41.60;;;;;;4986301;28;114426;-84
2023/05/02 04:54:59;;;;;;;5.85;3.20;;;14.40;41.80;;;;;;4967775;28;114901;-85
2023/05/02 04:57:30;;;;;;;6.10;3.60;;;14.50;41.70;;;;;;4985031;28;115185;-86
2023/05/02 05:00:02;;;;;;;8.85;3.70;;;14.70;41.40;;;;;;4969393;28;114560;-85
2023/05/02 05:02:31;;;;;;;10.68;3.95;;;14.70;41.40;;;;;;5002395;28;114601;-85
2023/05/02 05:05:01;;;;;;;9.20;3.97;;;14.80;41.30;;;;;;4976347;28;118414;-85
2023/05/02 05:07:28;;;;;;;10.63;4.07;;;14.80;41.00;;;;;;5003192;28;114879;-85
2023/05/02 05:10:01;;;;;;;7.60;3.60;;;14.90;41.20;;;;;;5001018;28;114439;-86
2023/05/02 05:12:42;;;;;;;9.93;3.50;;;14.90;41.30;;;;;;4988248;28;114486;-85
2023/05/02 05:15:10;;;;;;;10.30;3.80;;;15.00;40.90;;;;;;4953105;28;115341;-85
2023/05/02 05:17:40;;;;;;;11.75;3.45;;;15.00;40.80;;;;;;4999090;28;115361;-86
2023/05/02 05:20:09;;;;;;;6.63;3.25;;;15.10;40.60;;;;;;4988063;28;114621;-85
2023/05/02 05:22:38;;;;;;;8.25;3.67;;;15.10;40.60;;;;;;5003019;28;118563;-86
2023/05/02 05:25:16;;;;;;;8.43;3.40;;;15.10;40.60;;;;;;4983642;28;118122;-87
2023/05/02 05:27:45;;;;;;;10.18;3.42;;;15.10;40.70;;;;;;5006503;28;116644;-86
2023/05/02 05:30:13;;;;;;;9.93;3.70;;;15.10;40.60;;;;;;5001254;28;114844;-86
2023/05/02 05:32:42;;;;;;;8.52;3.67;;;15.20;41.20;;;;;;4985305;28;114588;-86
2023/05/02 05:35:10;;;;;;;12.05;3.90;;;15.30;42.30;;;;;;5001340;28;114957;-87
2023/05/02 05:37:39;;;;;;;8.20;3.80;;;15.40;41.60;;;;;;5001216;28;114559;-86
2023/05/02 05:40:10;;;;;;;10.55;4.90;;;15.60;41.10;;;;;;5001409;28;114653;-86
2023/05/02 05:42:39;;;;;;;9.55;4.03;;;15.80;41.50;;;;;;4985350;28;116900;-85
2023/05/02 05:45:15;;;;;;;8.50;3.85;;;15.90;41.30;;;;;;4999217;28;114968;-85
2023/05/02 05:47:42;;;;;;;9.35;3.97;;;16.00;40.40;;;;;;5000152;28;119589;-85
2023/05/02 05:50:10;;;;;;;9.65;3.47;;;16.00;40.10;;;;;;4967305;28;114421;-86
2023/05/02 05:52:38;;;;;;;6.28;3.50;;;16.00;39.90;;;;;;5016601;28;114615;-86
2023/05/02 05:55:05;;;;;;;7.68;3.70;;;16.00;39.90;;;;;;4951053;28;115902;-86
2023/05/02 05:57:33;;;;;;;7.78;3.78;;;16.10;40.30;;;;;;4983251;28;116416;-86
2023/05/02 06:00:01;;;;;;;11.02;3.58;;;16.20;39.90;;;;;;5001142;28;114542;-87
2023/05/02 06:02:41;;;;;;;8.05;3.90;;;16.20;40.10;;;;;;4985062;28;114594;-87
2023/05/02 06:05:18;;;;;;;8.38;3.53;;;16.40;39.80;;;;;;4955529;28;116073;-87
2023/05/02 06:07:45;;;;;;;11.18;4.10;;;16.50;39.50;;;;;;4999901;28;114564;-86
2023/05/02 06:10:12;;;;;;;8.60;3.60;;;16.60;39.90;;;;;;4997211;28;114575;-85
2023/05/02 06:12:42;;;;;;;7.28;3.60;;;16.70;39.50;;;;;;5000233;28;114550;-85
2023/05/02 06:15:11;;;;;;;8.82;3.40;;;16.90;39.40;;;;;;4966190;28;116586;-85
2023/05/02 06:17:42;;;;;;;10.25;3.92;;;17.00;39.60;;;;;;4980313;28;117700;-84
2023/05/02 06:20:10;;;;;;;10.27;3.92;;;17.30;39.20;;;;;;5017296;28;114578;-85
2023/05/02 06:22:38;;;;;;;6.38;3.15;;;17.40;39.20;;;;;;4999687;28;114567;-85
2023/05/02 06:25:06;;;;;;;9.93;3.88;;;17.70;38.70;;;;;;4998940;28;117056;-86
2023/05/02 06:27:33;;;;;;;8.00;3.15;;;17.90;39.10;;;;;;4982693;28;117633;-85
2023/05/02 06:30:01;;;;;;;8.63;3.45;;;18.20;38.20;;;;;;4982592;28;114519;-85
2023/05/02 06:32:32;;;;;;;8.00;2.97;;;18.40;37.50;;;;;;4964548;28;115027;-85
2023/05/02 06:35:00;;;;;;;7.07;3.08;;;18.50;37.00;;;;;;5000156;28;118015;-85
2023/05/02 06:37:34;;;;;;;8.68;3.50;;;18.50;37.20;;;;;;4983463;28;116299;-87
2023/05/02 06:40:06;;;;;;;7.30;3.42;;;18.60;37.50;;;;;;4969375;28;114601;-87
2023/05/02 06:42:34;;;;;;;13.25;4.47;;;18.80;37.50;;;;;;4986843;28;119009;-87
2023/05/02 06:45:02;;;;;;;7.78;3.78;;;18.90;37.60;;;;;;4972531;28;114914;-87
2023/05/02 06:47:33;;;;;;;6.78;3.38;;;19.10;37.40;;;;;;4981183;28;114714;-86
2023/05/02 06:50:01;;;;;;;8.90;3.13;;;19.30;37.70;;;;;;4984209;28;114483;-87
2023/05/02 06:52:28;;;;;;;6.45;2.88;;;19.70;37.00;;;;;;4999994;28;114451;-88
2023/05/02 06:54:55;;;;;;;5.35;2.58;;;19.80;37.00;;;;;;4999325;28;118058;-87
2023/05/02 06:57:24;;;;;;;7.10;3.10;;;20.10;36.80;;;;;;4982729;28;114554;-86
2023/05/02 06:59:52;;;;;;;7.32;3.72;;;20.30;36.10;;;;;;4983614;28;114444;-87
2023/05/02 07:02:21;;;;;;;6.75;3.63;;;20.40;35.40;;;;;;4983100;28;114642;-87
2023/05/02 07:04:48;;;;;;;8.35;3.30;;;20.50;35.00;;;;;;4974857;28;118211;-87
2023/05/02 07:07:17;;;;;;;7.53;3.33;;;20.50;34.20;;;;;;4999100;28;117959;-86
2023/05/02 07:09:51;;;;;;;7.95;3.13;;;20.50;34.30;;;;;;4981402;28;114561;-86
2023/05/02 07:12:20;;;;;;;5.43;3.20;;;20.50;34.60;;;;;;5000726;28;114985;-86
2023/05/02 07:14:47;;;;;;;6.90;3.40;;;20.60;34.80;;;;;;4961385;28;117374;-87
2023/05/02 07:17:15;;;;;;;5.45;2.88;;;20.70;34.70;;;;;;4965651;28;115760;-87
2023/05/02 07:19:42;;;;;;;7.75;3.40;;;20.70;35.00;;;;;;4982468;28;118824;-87
2023/05/02 07:22:25;;;;;;;7.28;3.05;;;20.80;34.90;;;;;;4985224;28;114697;-87
2023/05/02 07:25:01;;;;;;;5.22;2.60;;;21.00;35.10;;;;;;4986779;28;114917;-86
2023/05/02 07:27:29;;;;;;;6.75;2.85;;;21.10;35.80;;;;;;4961792;28;117649;-85
2023/05/02 07:29:57;;;;;;;4.72;2.15;;;21.20;34.50;;;;;;4997048;28;114377;-86
2023/05/02 07:32:25;;;;;;;4.28;2.15;;;21.10;34.40;;;;;;4982513;28;114500;-88
2023/05/02 07:34:54;;;;;;;3.85;2.13;;;21.10;34.50;;;;;;4963963;28;115018;-86
2023/05/02 07:37:24;;;;;;;4.78;2.50;;;21.00;34.20;;;;;;4982419;28;119909;-85
2023/05/02 07:39:52;;;;;;;5.18;2.92;;;21.00;34.50;;;;;;5000818;28;114578;-86
2023/05/02 07:42:20;;;;;;;5.07;2.97;;;21.00;34.00;;;;;;4969197;28;114569;-86
2023/05/02 07:44:48;;;;;;;6.40;2.78;;;21.00;33.80;;;;;;4951647;28;119048;-85
2023/05/02 07:47:15;;;;;;;5.55;2.55;;;20.80;33.10;;;;;;5002039;28;119413;-86
2023/05/02 07:49:54;;;;;;;6.28;2.75;;;20.70;33.80;;;;;;4972016;28;114577;-87
2023/05/02 07:52:24;;;;;;;5.45;2.78;;;20.80;34.40;;;;;;4975424;28;114242;-85
2023/05/02 07:54:51;;;;;;;5.53;2.58;;;20.80;34.30;;;;;;5004002;28;116518;-86
2023/05/02 07:57:19;;;;;;;5.80;2.67;;;20.80;34.50;;;;;;4985304;28;116251;-86
2023/05/02 07:59:49;;;;;;;6.15;2.92;;;21.00;34.60;;;;;;4969956;28;114528;-86
2023/05/02 08:02:18;;;;;;;4.88;2.55;;;21.00;34.60;;;;;;4980402;28;114956;-85
2023/05/02 08:04:46;;;;;;;4.90;2.50;;;21.10;34.70;;;;;;5018098;28;115955;-85
2023/05/02 08:07:16;;;;;;;4.38;2.35;;;21.00;34.10;;;;;;4992259;28;114540;-85
2023/05/02 08:09:43;;;;;;;5.70;2.50;;;21.00;34.60;;;;;;5002037;28;114540;-86
2023/05/02 08:12:10;;;;;;;5.00;2.63;;;21.10;34.50;;;;;;4968249;28;114478;-87
2023/05/02 08:14:37;;;;;;;6.47;2.70;;;21.10;34.60;;;;;;5001874;28;114840;-85
2023/05/02 08:17:04;;;;;;;4.78;2.35;;;21.30;35.20;;;;;;5003260;28;114662;-85
2023/05/02 08:19:32;;;;;;;7.22;3.03;;;21.50;34.00;;;;;;4969980;28;114422;-86
2023/05/02 08:22:00;;;;;;;7.80;2.88;;;21.70;33.80;;;;;;5000985;28;114606;-86
2023/05/02 08:24:27;;;;;;;6.05;2.83;;;21.80;33.70;;;;;;5000850;28;118124;-86
2023/05/02 08:26:54;;;;;;;5.47;3.08;;;22.00;34.40;;;;;;5001661;28;116269;-87
2023/05/02 08:29:23;;;;;;;7.30;2.47;;;22.10;33.80;;;;;;5002654;28;114927;-88
2023/05/02 08:31:51;;;;;;;7.03;2.67;;;22.30;33.50;;;;;;4986148;28;114656;-88
2023/05/02 08:34:20;;;;;;;4.60;2.92;;;22.30;33.80;;;;;;4984326;28;118189;-86
2023/05/02 08:36:48;;;;;;;3.83;2.55;;;22.30;33.30;;;;;;5002965;28;118199;-87
2023/05/02 08:39:15;;;;;;;3.83;2.30;;;22.30;33.50;;;;;;4985691;28;114665;-87
2023/05/02 08:41:46;;;;;;;6.07;2.65;;;22.40;34.00;;;;;;4988783;28;114504;-87
2023/05/02 08:44:14;;;;;;;6.38;3.30;;;22.50;34.20;;;;;;4969041;28;117375;-86
2023/05/02 08:46:42;;;;;;;5.50;2.80;;;22.50;34.20;;;;;;4983178;28;115239;-88
2023/05/02 08:49:10;;;;;;;4.70;2.80;;;22.60;34.10;;;;;;4985330;28;114973;-87
2023/05/02 08:51:40;;;;;;;4.70;2.90;;;22.60;34.20;;;;;;4986239;28;114556;-87
2023/05/02 08:54:08;;;;;;;9.27;2.70;;;22.70;34.20;;;;;;4968191;28;117738;-87
2023/05/02 08:56:36;;;;;;;5.80;2.47;;;22.80;33.70;;;;;;4981258;28;114695;-88
2023/05/02 08:59:05;;;;;;;5.18;2.63;;;22.80;33.50;;;;;;4984635;28;114416;-86
2023/05/02 09:01:32;;;;;;;3.25;2.30;;;22.80;33.20;;;;;;5000823;28;114541;-87
2023/05/02 09:04:00;;;;;;;4.97;2.70;;;22.90;32.80;;;;;;4984285;28;116038;-87
2023/05/02 09:06:28;;;;;;;4.70;2.33;;;23.00;33.70;;;;;;5000320;28;114733;-85
2023/05/02 09:08:58;;;;;;;4.50;2.75;;;23.00;33.30;;;;;;4980895;28;118221;-87
2023/05/02 09:11:26;;;;;;;4.88;2.90;;;23.10;33.40;;;;;;4984963;28;114596;-87
2023/05/02 09:13:53;;;;;;;3.53;2.60;;;23.10;33.60;;;;;;5000692;28;115426;-87
2023/05/02 09:16:22;;;;;;;6.45;2.80;;;23.00;33.40;;;;;;4983892;28;115216;-87
2023/05/02 09:18:53;;;;;;;4.32;2.50;;;22.80;33.60;;;;;;4965551;28;114683;-86
2023/05/02 09:21:25;;;;;;;4.35;2.72;;;22.80;33.60;;;;;;4984582;28;114642;-86
2023/05/02 09:24:00;;;;;;;8.07;3.15;;;22.60;33.70;;;;;;4983491;28;117621;-86
2023/05/02 09:26:47;;;;;;;;;;;22.40;34.30;;;;;;4967112;28;117489;-87
2023/05/02 09:29:15;;;;;;;8.00;2.58;;;22.20;34.70;;;;;;5018306;28;114435;-87
2023/05/02 09:31:42;;;;;;;5.57;3.10;;;21.90;35.10;;;;;;4986554;28;116932;-87
2023/05/02 09:34:22;;;;;;;7.80;3.13;;;21.70;35.30;;;;;;4957269;28;117869;-86
2023/05/02 09:36:53;;;;;;;7.63;3.08;;;21.50;35.80;;;;;;4978655;28;115984;-87
2023/05/02 09:39:24;;;;;;;4.20;2.90;;;21.30;36.40;;;;;;4970102;28;114540;-89
2023/05/02 09:41:52;;;;;;;8.63;3.08;;;21.30;36.50;;;;;;5003665;28;114846;-86
2023/05/02 09:44:36;;;;;;;6.28;2.97;;;21.20;36.80;;;;;;4984545;28;116458;-87
2023/05/02 09:47:05;;;;;;;4.97;2.75;;;21.20;36.80;;;;;;5004549;27;115255;-90
2023/05/02 09:49:38;;;;;;;4.68;2.88;;;21.20;37.40;;;;;;4985825;28;116091;-87
2023/05/02 09:52:09;;;;;;;6.03;3.03;;;21.10;36.80;;;;;;4999335;28;116421;-87
2023/05/02 09:54:37;;;;;;;4.32;3.10;;;21.10;36.70;;;;;;5000628;28;115070;-87
2023/05/02 09:57:06;;;;;;;4.95;3.58;;;21.10;36.90;;;;;;4983664;28;119181;-87
2023/05/02 09:59:34;;;;;;;8.85;3.28;;;21.00;37.20;;;;;;4998773;28;114887;-88
2023/05/02 10:02:03;;;;;;;6.22;3.83;;;21.00;37.40;;;;;;4981837;28;114523;-88
2023/05/02 10:04:31;;;;;;;6.25;3.30;;;21.00;37.70;;;;;;4998398;28;116063;-86
2023/05/02 10:06:59;;;;;;;7.82;3.30;;;21.00;37.90;;;;;;4982722;28;115191;-87
2023/05/02 10:09:27;;;;;;;7.80;3.00;;;21.00;37.80;;;;;;4966870;28;114270;-87
2023/05/02 10:11:55;;;;;;;6.00;3.47;;;21.00;37.90;;;;;;5000787;28;114973;-87
2023/05/02 10:14:24;;;;;;;4.60;3.00;;;21.00;37.80;;;;;;4998591;28;114909;-87
2023/05/02 10:17:11;;;;;;;4.93;2.95;;;21.10;37.60;;;;;;4982906;28;114901;-85
2023/05/02 10:20:03;;;;;;;6.70;3.10;;;21.10;37.60;;;;;;4982957;28;114607;-86
2023/05/02 10:22:35;;;;;;;5.13;2.97;;;21.00;37.60;;;;;;4982733;28;114829;-87
2023/05/02 10:25:03;;;;;;;6.45;3.55;;;20.90;37.60;;;;;;4998887;28;117270;-87
2023/05/02 10:27:32;;;;;;;6.88;3.15;;;20.90;37.60;;;;;;4982864;28;118349;-87
2023/05/02 10:29:59;;;;;;;6.28;3.10;;;20.90;37.60;;;;;;4982511;28;114560;-86
2023/05/02 10:32:28;;;;;;;7.90;3.10;;;20.80;38.00;;;;;;4999743;28;114688;-87
2023/05/02 10:34:56;;;;;;;6.38;3.47;;;20.80;38.00;;;;;;5017845;28;115253;-88
2023/05/02 10:37:27;;;;;;;12.77;3.33;;;20.80;37.90;;;;;;5001446;28;118166;-86
2023/05/02 10:39:54;;;;;;;6.75;3.15;;;20.80;38.20;;;;;;4984668;28;114571;-87
2023/05/02 10:42:24;;;;;;;9.30;3.38;;;20.70;38.20;;;;;;4997490;28;114405;-87
2023/05/02 10:44:54;;;;;;;7.38;3.42;;;20.70;38.50;;;;;;4982472;28;114894;-87
2023/05/02 10:47:30;;;;;;;6.65;3.30;;;20.60;39.50;;;;;;4956247;28;115004;-86
2023/05/02 10:50:01;;;;;;;9.82;3.90;;;20.50;40.10;;;;;;5006981;28;114227;-88
2023/05/02 10:52:32;;;;;;;6.78;4.88;;;20.40;41.60;;;;;;4999752;28;114499;-87
2023/05/02 10:55:16;;;;;;;6.32;3.90;;;20.30;42.40;;;;;;4998750;28;115077;-87
2023/05/02 10:57:57;;;;;;;5.43;3.70;;;20.30;42.30;;;;;;4999726;28;115165;-88
2023/05/02 11:00:25;;;;;;;5.00;3.47;;;20.30;42.50;;;;;;4991798;28;114423;-87
2023/05/02 11:02:52;;;;;;;5.80;3.80;;;20.20;42.90;;;;;;4980342;28;114674;-87
2023/05/02 11:05:24;;;;;;;6.05;3.42;;;20.20;42.40;;;;;;5015029;28;115530;-86
2023/05/02 11:08:18;;;;;;;4.97;3.15;;;20.20;41.50;;;;;;4966386;28;117194;-87
2023/05/02 11:10:49;;;;;;;6.15;3.78;;;20.20;41.00;;;;;;5007345;28;114584;-86
2023/05/02 11:13:16;;;;;;;4.72;3.30;;;20.10;41.10;;;;;;5002040;28;120302;-87
2023/05/02 11:15:44;;;;;;;7.32;3.50;;;20.10;41.00;;;;;;4980735;28;114983;-86
2023/05/02 11:18:12;;;;;;;7.45;3.35;;;20.10;41.20;;;;;;4999293;28;118125;-87
2023/05/02 11:20:41;;;;;;;5.32;3.30;;;20.10;41.00;;;;;;5000292;28;114685;-87
2023/05/02 11:23:20;;;;;;;8.25;3.53;;;20.00;40.70;;;;;;4981779;28;114665;-86
2023/05/02 11:25:59;;;;;;;6.43;3.63;;;20.10;40.60;;;;;;4997472;28;117067;-86
2023/05/02 11:28:46;;;;;;;4.90;3.60;;;20.00;40.80;;;;;;4997126;28;115066;-87
2023/05/02 11:31:26;;;;;;;5.63;3.60;;;20.10;40.60;;;;;;4983142;28;115057;-87
2023/05/02 11:34:04;;;;;;;12.43;3.80;;;20.10;40.60;;;;;;4999307;28;114566;-87
2023/05/02 11:36:32;;;;;;;5.05;4.15;;;20.10;40.30;;;;;;4965411;28;115107;-84
2023/05/02 11:39:00;;;;;;;5.30;3.60;;;20.10;40.40;;;;;;4983164;28;116935;-85
2023/05/02 11:41:38;;;;;;;7.95;3.70;;;20.00;40.70;;;;;;5000004;28;114628;-86
2023/05/02 11:44:06;;;;;;;5.30;3.33;;;20.10;40.50;;;;;;4967603;28;114562;-87
2023/05/02 11:46:40;;;;;;;4.70;3.65;;;20.00;40.20;;;;;;5001074;28;116214;-86
2023/05/02 11:49:07;;;;;;;7.80;3.78;;;20.00;40.50;;;;;;4986096;28;117906;-86
2023/05/02 11:51:36;;;;;;;7.80;4.00;;;20.00;40.90;;;;;;5001463;28;114384;-86
2023/05/02 11:54:06;;;;;;;5.47;3.53;;;20.10;40.60;;;;;;4982462;28;114261;-88
2023/05/02 11:56:34;;;;;;;6.32;3.92;;;20.10;40.90;;;;;;4982622;28;115270;-86
2023/05/02 11:59:02;;;;;;;7.00;4.70;;;20.10;41.10;;;;;;4981211;28;118336;-86
2023/05/02 12:01:32;;;;;;;7.70;5.60;;;20.10;41.50;;;;;;4983696;28;115514;-86
2023/05/02 12:04:06;;;;;;;6.60;4.20;;;20.10;41.70;;;;;;4982935;28;114544;-86
2023/05/02 12:06:34;;;;;;;5.70;4.50;;;20.10;40.80;;;;;;4979518;28;115091;-87
2023/05/02 12:09:09;;;;;;;5.60;4.50;;;20.10;40.70;;;;;;4983731;28;115435;-86
2023/05/02 12:11:37;;;;;;;7.93;4.30;;;20.00;41.00;;;;;;4967714;28;114484;-86
2023/05/02 12:14:05;;;;;;;7.68;4.35;;;20.10;41.10;;;;;;4987278;28;114802;-86
2023/05/02 12:16:32;;;;;;;7.85;3.90;;;20.00;41.40;;;;;;4998790;28;115212;-86
2023/05/02 12:18:59;;;;;;;5.60;4.32;;;20.00;41.40;;;;;;4982544;28;118285;-87
2023/05/02 12:21:28;;;;;;;5.30;4.00;;;20.10;41.50;;;;;;4982911;28;114475;-87
2023/05/02 12:23:55;;;;;;;7.47;5.03;;;20.00;41.40;;;;;;4965854;28;114435;-87
2023/05/02 12:26:31;;;;;;;6.80;4.70;;;20.00;41.30;;;;;;5012775;27;115508;-86
2023/05/02 12:29:02;;;;;;;6.63;5.25;;;20.10;41.40;;;;;;4986866;28;114968;-87
2023/05/02 12:31:30;;;;;;;7.65;4.88;;;20.10;41.80;;;;;;4986673;28;115392;-86
2023/05/02 12:33:59;;;;;;;7.88;4.78;;;20.10;41.50;;;;;;5002151;28;114529;-85
2023/05/02 12:36:27;;;;;;;6.05;4.55;;;20.10;41.40;;;;;;4952666;28;117351;-86
2023/05/02 12:38:58;;;;;;;6.20;4.57;;;20.00;41.60;;;;;;4985335;28;117467;-86
2023/05/02 12:41:37;;;;;;;6.97;4.32;;;20.00;42.10;;;;;;4983342;28;115221;-87
2023/05/02 12:44:06;;;;;;;6.82;5.32;;;20.00;42.20;;;;;;4983045;28;115216;-86
2023/05/02 12:46:34;;;;;;;7.75;5.72;;;20.00;42.90;;;;;;4935690;28;117901;-86
2023/05/02 12:49:11;;;;;;;12.38;7.15;;;20.00;43.90;;;;;;4978868;28;114638;-87
2023/05/02 12:51:39;;;;;;;10.50;7.65;;;20.00;44.30;;;;;;4986516;28;115023;-86
2023/05/02 12:54:07;;;;;;;11.13;7.63;;;20.00;44.30;;;;;;5002305;28;114524;-86